sensor_id;sensor_type;location;lat;lon;timestamp;temperature;humidity
16287;DHT22;8251;53.568;10.018;2023-04-25T00:02:13;11.30;91.00
16287;DHT22;8251;53.568;10.018;2023-04-25T00:04:40;11.40;91.10
16287;DHT22;8251;53.568;10.018;2023-04-25T00:07:07;11.40;90.80
16287;DHT22;8251;53.568;10.018;2023-04-25T00:09:35;11.40;90.60
16287;DHT22;8251;53.568;10.018;2023-04-25T00:12:03;11.40;90.50
16287;DHT22;8251;53.568;10.018;2023-04-25T00:14:34;11.40;90.50
16287;DHT22;8251;53.568;10.018;2023-04-25T00:17:04;11.40;90.40
16287;DHT22;8251;53.568;10.018;2023-04-25T00:19:34;11.40;90.40
16287;DHT22;8251;53.568;10.018;2023-04-25T00:22:01;11.50;90.40
16287;DHT22;8251;53.568;10.018;2023-04-25T00:24:27;11.50;89.90
16287;DHT22;8251;53.568;10.018;2023-04-25T00:26:55;11.50;90.30
16287;DHT22;8251;53.568;10.018;2023-04-25T00:29:21;11.50;89.00
16287;DHT22;8251;53.568;10.018;2023-04-25T00:31:50;11.50;88.60
16287;DHT22;8251;53.568;10.018;2023-04-25T00:34:17;11.50;88.20
16287;DHT22;8251;53.568;10.018;2023-04-25T00:36:44;11.50;88.00
16287;DHT22;8251;53.568;10.018;2023-04-25T00:39:11;11.60;88.20
16287;DHT22;8251;53.568;10.018;2023-04-25T00:41:38;11.60;87.60
16287;DHT22;8251;53.568;10.018;2023-04-25T00:44:08;11.70;87.70
16287;DHT22;8251;53.568;10.018;2023-04-25T00:46:36;11.70;87.50
16287;DHT22;8251;53.568;10.018;2023-04-25T00:49:06;11.70;86.20
16287;DHT22;8251;53.568;10.018;2023-04-25T00:51:33;11.60;85.90
16287;DHT22;8251;53.568;10.018;2023-04-25T00:54:01;11.60;85.50
16287;DHT22;8251;53.568;10.018;2023-04-25T00:56:28;11.60;85.00
16287;DHT22;8251;53.568;10.018;2023-04-25T00:58:57;11.50;83.70
16287;DHT22;8251;53.568;10.018;2023-04-25T01:01:25;11.50;83.30
16287;DHT22;8251;53.568;10.018;2023-04-25T01:03:58;11.50;82.60
16287;DHT22;8251;53.568;10.018;2023-04-25T01:06:26;11.50;83.00
16287;DHT22;8251;53.568;10.018;2023-04-25T01:08:54;11.50;83.10
16287;DHT22;8251;53.568;10.018;2023-04-25T01:11:21;11.50;83.50
16287;DHT22;8251;53.568;10.018;2023-04-25T01:13:48;11.50;83.10
16287;DHT22;8251;53.568;10.018;2023-04-25T01:16:15;11.50;83.50
16287;DHT22;8251;53.568;10.018;2023-04-25T01:18:42;11.50;83.30
16287;DHT22;8251;53.568;10.018;2023-04-25T01:21:12;11.50;83.10
16287;DHT22;8251;53.568;10.018;2023-04-25T01:23:39;11.40;82.00
16287;DHT22;8251;53.568;10.018;2023-04-25T01:26:10;11.40;81.70
16287;DHT22;8251;53.568;10.018;2023-04-25T01:28:38;11.40;82.00
16287;DHT22;8251;53.568;10.018;2023-04-25T01:31:09;11.40;81.60
16287;DHT22;8251;53.568;10.018;2023-04-25T01:33:37;11.40;81.10
16287;DHT22;8251;53.568;10.018;2023-04-25T01:36:06;11.30;81.20
16287;DHT22;8251;53.568;10.018;2023-04-25T01:38:35;11.30;81.00
16287;DHT22;8251;53.568;10.018;2023-04-25T01:41:02;11.30;81.30
16287;DHT22;8251;53.568;10.018;2023-04-25T01:43:29;11.30;81.20
16287;DHT22;8251;53.568;10.018;2023-04-25T01:45:57;11.30;81.00
16287;DHT22;8251;53.568;10.018;2023-04-25T01:48:24;11.20;80.50
16287;DHT22;8251;53.568;10.018;2023-04-25T01:50:51;11.20;80.90
16287;DHT22;8251;53.568;10.018;2023-04-25T01:53:21;11.20;80.60
16287;DHT22;8251;53.568;10.018;2023-04-25T01:55:49;11.20;80.00
16287;DHT22;8251;53.568;10.018;2023-04-25T01:58:18;11.10;80.80
16287;DHT22;8251;53.568;10.018;2023-04-25T02:00:46;11.20;81.20
16287;DHT22;8251;53.568;10.018;2023-04-25T02:03:16;11.20;80.80
16287;DHT22;8251;53.568;10.018;2023-04-25T02:05:43;11.20;79.40
16287;DHT22;8251;53.568;10.018;2023-04-25T02:08:13;11.20;79.50
16287;DHT22;8251;53.568;10.018;2023-04-25T02:10:43;11.20;79.30
16287;DHT22;8251;53.568;10.018;2023-04-25T02:13:12;11.20;78.70
16287;DHT22;8251;53.568;10.018;2023-04-25T02:15:42;11.20;77.90
16287;DHT22;8251;53.568;10.018;2023-04-25T02:18:09;11.20;78.10
16287;DHT22;8251;53.568;10.018;2023-04-25T02:20:37;11.20;77.50
16287;DHT22;8251;53.568;10.018;2023-04-25T02:23:04;11.20;77.50
16287;DHT22;8251;53.568;10.018;2023-04-25T02:25:31;11.20;77.20
16287;DHT22;8251;53.568;10.018;2023-04-25T02:27:58;11.10;77.30
16287;DHT22;8251;53.568;10.018;2023-04-25T02:30:27;11.20;76.90
16287;DHT22;8251;53.568;10.018;2023-04-25T02:32:54;11.20;76.70
16287;DHT22;8251;53.568;10.018;2023-04-25T02:35:22;11.10;76.20
16287;DHT22;8251;53.568;10.018;2023-04-25T02:37:48;11.10;75.70
16287;DHT22;8251;53.568;10.018;2023-04-25T02:40:16;11.10;76.60
16287;DHT22;8251;53.568;10.018;2023-04-25T02:42:46;11.00;76.00
16287;DHT22;8251;53.568;10.018;2023-04-25T02:45:12;11.10;76.60
16287;DHT22;8251;53.568;10.018;2023-04-25T02:47:41;11.00;76.70
16287;DHT22;8251;53.568;10.018;2023-04-25T02:50:11;11.10;76.80
16287;DHT22;8251;53.568;10.018;2023-04-25T02:52:38;11.00;75.80
16287;DHT22;8251;53.568;10.018;2023-04-25T02:55:08;11.00;76.20
16287;DHT22;8251;53.568;10.018;2023-04-25T02:57:36;11.00;75.10
16287;DHT22;8251;53.568;10.018;2023-04-25T03:00:04;11.00;74.50
16287;DHT22;8251;53.568;10.018;2023-04-25T03:02:31;10.90;74.30
16287;DHT22;8251;53.568;10.018;2023-04-25T03:04:59;10.90;74.60
16287;DHT22;8251;53.568;10.018;2023-04-25T03:07:26;10.90;74.20
16287;DHT22;8251;53.568;10.018;2023-04-25T03:09:53;10.90;73.60
16287;DHT22;8251;53.568;10.018;2023-04-25T03:12:22;10.80;73.50
16287;DHT22;8251;53.568;10.018;2023-04-25T03:14:52;10.80;73.20
16287;DHT22;8251;53.568;10.018;2023-04-25T03:17:20;10.80;72.30
16287;DHT22;8251;53.568;10.018;2023-04-25T03:19:48;10.70;72.60
16287;DHT22;8251;53.568;10.018;2023-04-25T03:22:16;10.70;72.40
16287;DHT22;8251;53.568;10.018;2023-04-25T03:24:43;10.60;73.20
16287;DHT22;8251;53.568;10.018;2023-04-25T03:27:10;10.70;73.30
16287;DHT22;8251;53.568;10.018;2023-04-25T03:29:37;10.60;72.40
16287;DHT22;8251;53.568;10.018;2023-04-25T03:32:04;10.60;72.40
16287;DHT22;8251;53.568;10.018;2023-04-25T03:34:31;10.60;71.90
16287;DHT22;8251;53.568;10.018;2023-04-25T03:36:58;10.60;70.40
16287;DHT22;8251;53.568;10.018;2023-04-25T03:39:27;10.50;69.50
16287;DHT22;8251;53.568;10.018;2023-04-25T03:41:54;10.50;70.60
16287;DHT22;8251;53.568;10.018;2023-04-25T03:44:21;10.50;71.30
16287;DHT22;8251;53.568;10.018;2023-04-25T03:46:50;10.50;71.40
16287;DHT22;8251;53.568;10.018;2023-04-25T03:49:20;10.40;70.90
16287;DHT22;8251;53.568;10.018;2023-04-25T03:51:56;10.40;71.10
16287;DHT22;8251;53.568;10.018;2023-04-25T03:54:23;10.40;70.60
16287;DHT22;8251;53.568;10.018;2023-04-25T03:56:51;10.50;70.70
16287;DHT22;8251;53.568;10.018;2023-04-25T03:59:18;10.50;70.40
16287;DHT22;8251;53.568;10.018;2023-04-25T04:01:46;10.50;70.30
16287;DHT22;8251;53.568;10.018;2023-04-25T04:04:13;10.50;70.20
16287;DHT22;8251;53.568;10.018;2023-04-25T04:06:40;10.50;70.00
16287;DHT22;8251;53.568;10.018;2023-04-25T04:09:07;10.40;69.50
16287;DHT22;8251;53.568;10.018;2023-04-25T04:11:40;10.40;69.60
16287;DHT22;8251;53.568;10.018;2023-04-25T04:14:09;10.40;69.20
16287;DHT22;8251;53.568;10.018;2023-04-25T04:16:36;10.40;68.80
16287;DHT22;8251;53.568;10.018;2023-04-25T04:19:03;10.40;68.50
16287;DHT22;8251;53.568;10.018;2023-04-25T04:21:32;10.40;68.10
16287;DHT22;8251;53.568;10.018;2023-04-25T04:23:59;10.40;67.60
16287;DHT22;8251;53.568;10.018;2023-04-25T04:26:27;10.40;67.70
16287;DHT22;8251;53.568;10.018;2023-04-25T04:28:54;10.40;67.60
16287;DHT22;8251;53.568;10.018;2023-04-25T04:31:23;10.30;68.10
16287;DHT22;8251;53.568;10.018;2023-04-25T04:33:50;10.40;68.10
16287;DHT22;8251;53.568;10.018;2023-04-25T04:36:20;10.30;68.30
16287;DHT22;8251;53.568;10.018;2023-04-25T04:38:47;10.30;67.50
16287;DHT22;8251;53.568;10.018;2023-04-25T04:41:14;10.30;68.20
16287;DHT22;8251;53.568;10.018;2023-04-25T04:43:42;10.30;68.10
16287;DHT22;8251;53.568;10.018;2023-04-25T04:46:12;10.40;67.60
16287;DHT22;8251;53.568;10.018;2023-04-25T04:48:44;10.40;67.80
16287;DHT22;8251;53.568;10.018;2023-04-25T04:51:11;10.40;67.20
16287;DHT22;8251;53.568;10.018;2023-04-25T04:53:38;10.40;67.20
16287;DHT22;8251;53.568;10.018;2023-04-25T04:56:05;10.50;67.30
16287;DHT22;8251;53.568;10.018;2023-04-25T04:58:32;10.50;66.20
16287;DHT22;8251;53.568;10.018;2023-04-25T05:01:00;10.50;66.00
16287;DHT22;8251;53.568;10.018;2023-04-25T05:03:27;10.50;66.00
16287;DHT22;8251;53.568;10.018;2023-04-25T05:05:58;10.50;65.80
16287;DHT22;8251;53.568;10.018;2023-04-25T05:08:25;10.50;66.40
16287;DHT22;8251;53.568;10.018;2023-04-25T05:10:52;10.50;65.60
16287;DHT22;8251;53.568;10.018;2023-04-25T05:13:19;10.50;66.00
16287;DHT22;8251;53.568;10.018;2023-04-25T05:15:46;10.50;65.60
16287;DHT22;8251;53.568;10.018;2023-04-25T05:18:13;10.30;66.20
16287;DHT22;8251;53.568;10.018;2023-04-25T05:20:40;10.30;66.20
16287;DHT22;8251;53.568;10.018;2023-04-25T05:23:08;10.20;68.50
16287;DHT22;8251;53.568;10.018;2023-04-25T05:25:35;10.20;68.50
16287;DHT22;8251;53.568;10.018;2023-04-25T05:28:02;10.10;68.10
16287;DHT22;8251;53.568;10.018;2023-04-25T05:30:30;10.10;68.70
16287;DHT22;8251;53.568;10.018;2023-04-25T05:32:57;10.20;69.90
16287;DHT22;8251;53.568;10.018;2023-04-25T05:35:24;10.20;70.00
16287;DHT22;8251;53.568;10.018;2023-04-25T05:37:51;10.20;69.50
16287;DHT22;8251;53.568;10.018;2023-04-25T05:40:19;10.30;69.40
16287;DHT22;8251;53.568;10.018;2023-04-25T05:42:46;10.40;69.70
16287;DHT22;8251;53.568;10.018;2023-04-25T05:45:13;10.40;69.80
16287;DHT22;8251;53.568;10.018;2023-04-25T05:47:40;10.40;69.50
16287;DHT22;8251;53.568;10.018;2023-04-25T05:50:08;10.50;68.80
16287;DHT22;8251;53.568;10.018;2023-04-25T05:52:35;10.50;68.10
16287;DHT22;8251;53.568;10.018;2023-04-25T05:55:02;10.50;69.00
16287;DHT22;8251;53.568;10.018;2023-04-25T05:57:31;10.50;68.70
16287;DHT22;8251;53.568;10.018;2023-04-25T05:59:58;10.60;69.40
16287;DHT22;8251;53.568;10.018;2023-04-25T06:02:25;10.70;68.90
16287;DHT22;8251;53.568;10.018;2023-04-25T06:04:52;10.70;68.10
16287;DHT22;8251;53.568;10.018;2023-04-25T06:07:19;10.70;67.40
16287;DHT22;8251;53.568;10.018;2023-04-25T06:09:46;10.80;67.90
16287;DHT22;8251;53.568;10.018;2023-04-25T06:12:13;10.80;68.40
16287;DHT22;8251;53.568;10.018;2023-04-25T06:14:44;10.90;68.10
16287;DHT22;8251;53.568;10.018;2023-04-25T06:17:12;11.00;68.20
16287;DHT22;8251;53.568;10.018;2023-04-25T06:19:39;11.00;67.80
16287;DHT22;8251;53.568;10.018;2023-04-25T06:22:07;11.10;67.80
16287;DHT22;8251;53.568;10.018;2023-04-25T06:24:34;11.10;67.10
16287;DHT22;8251;53.568;10.018;2023-04-25T06:27:01;11.10;67.40
16287;DHT22;8251;53.568;10.018;2023-04-25T06:29:28;11.10;67.40
16287;DHT22;8251;53.568;10.018;2023-04-25T06:31:56;11.10;67.20
16287;DHT22;8251;53.568;10.018;2023-04-25T06:34:23;11.10;67.00
16287;DHT22;8251;53.568;10.018;2023-04-25T06:36:50;10.90;68.70
16287;DHT22;8251;53.568;10.018;2023-04-25T06:39:35;10.90;70.60
16287;DHT22;8251;53.568;10.018;2023-04-25T06:42:20;10.60;71.80
16287;DHT22;8251;53.568;10.018;2023-04-25T06:44:56;10.60;71.00
16287;DHT22;8251;53.568;10.018;2023-04-25T06:47:34;10.70;71.70
16287;DHT22;8251;53.568;10.018;2023-04-25T06:50:11;10.60;72.00
16287;DHT22;8251;53.568;10.018;2023-04-25T06:52:42;10.70;71.60
16287;DHT22;8251;53.568;10.018;2023-04-25T06:55:09;10.80;71.10
16287;DHT22;8251;53.568;10.018;2023-04-25T06:57:39;11.00;70.90
16287;DHT22;8251;53.568;10.018;2023-04-25T07:00:10;11.00;70.30
16287;DHT22;8251;53.568;10.018;2023-04-25T07:02:43;11.00;70.00
16287;DHT22;8251;53.568;10.018;2023-04-25T07:05:10;11.10;70.00
16287;DHT22;8251;53.568;10.018;2023-04-25T07:07:36;11.10;68.60
16287;DHT22;8251;53.568;10.018;2023-04-25T07:10:07;11.20;68.20
16287;DHT22;8251;53.568;10.018;2023-04-25T07:12:35;11.20;68.40
16287;DHT22;8251;53.568;10.018;2023-04-25T07:15:02;11.20;68.20
16287;DHT22;8251;53.568;10.018;2023-04-25T07:17:32;11.30;68.80
16287;DHT22;8251;53.568;10.018;2023-04-25T07:20:02;11.40;68.70
16287;DHT22;8251;53.568;10.018;2023-04-25T07:22:29;11.50;68.40
16287;DHT22;8251;53.568;10.018;2023-04-25T07:24:56;11.50;67.30
16287;DHT22;8251;53.568;10.018;2023-04-25T07:27:23;11.50;66.10
16287;DHT22;8251;53.568;10.018;2023-04-25T07:29:50;11.50;66.20
16287;DHT22;8251;53.568;10.018;2023-04-25T07:32:17;11.50;67.40
16287;DHT22;8251;53.568;10.018;2023-04-25T07:34:44;11.50;67.40
16287;DHT22;8251;53.568;10.018;2023-04-25T07:37:12;11.60;66.70
16287;DHT22;8251;53.568;10.018;2023-04-25T07:39:41;11.60;66.70
16287;DHT22;8251;53.568;10.018;2023-04-25T07:42:08;11.50;66.80
16287;DHT22;8251;53.568;10.018;2023-04-25T07:44:35;11.50;66.70
16287;DHT22;8251;53.568;10.018;2023-04-25T07:47:04;11.40;67.00
16287;DHT22;8251;53.568;10.018;2023-04-25T07:49:32;11.40;67.70
16287;DHT22;8251;53.568;10.018;2023-04-25T07:52:00;11.30;69.30
16287;DHT22;8251;53.568;10.018;2023-04-25T07:54:28;11.40;68.30
16287;DHT22;8251;53.568;10.018;2023-04-25T07:56:55;11.50;67.90
16287;DHT22;8251;53.568;10.018;2023-04-25T07:59:22;11.70;66.70
16287;DHT22;8251;53.568;10.018;2023-04-25T08:01:49;11.90;67.30
16287;DHT22;8251;53.568;10.018;2023-04-25T08:04:16;12.20;66.70
16287;DHT22;8251;53.568;10.018;2023-04-25T08:06:46;12.30;65.60
16287;DHT22;8251;53.568;10.018;2023-04-25T08:09:14;12.50;63.50
16287;DHT22;8251;53.568;10.018;2023-04-25T08:11:42;12.50;62.40
16287;DHT22;8251;53.568;10.018;2023-04-25T08:14:09;12.50;62.30
16287;DHT22;8251;53.568;10.018;2023-04-25T08:16:37;12.30;62.90
16287;DHT22;8251;53.568;10.018;2023-04-25T08:19:04;12.30;64.50
16287;DHT22;8251;53.568;10.018;2023-04-25T08:21:33;12.30;64.00
16287;DHT22;8251;53.568;10.018;2023-04-25T08:24:00;12.30;63.60
16287;DHT22;8251;53.568;10.018;2023-04-25T08:26:28;12.10;62.90
16287;DHT22;8251;53.568;10.018;2023-04-25T08:28:57;12.10;62.00
16287;DHT22;8251;53.568;10.018;2023-04-25T08:31:23;12.00;62.30
16287;DHT22;8251;53.568;10.018;2023-04-25T08:33:50;12.00;62.50
16287;DHT22;8251;53.568;10.018;2023-04-25T08:36:17;12.00;62.90
16287;DHT22;8251;53.568;10.018;2023-04-25T08:38:45;12.10;62.40
16287;DHT22;8251;53.568;10.018;2023-04-25T08:41:13;12.20;63.30
16287;DHT22;8251;53.568;10.018;2023-04-25T08:43:42;12.30;63.80
16287;DHT22;8251;53.568;10.018;2023-04-25T08:46:19;12.40;63.10
16287;DHT22;8251;53.568;10.018;2023-04-25T08:48:53;12.30;62.50
16287;DHT22;8251;53.568;10.018;2023-04-25T08:51:22;12.20;62.10
16287;DHT22;8251;53.568;10.018;2023-04-25T08:53:53;12.10;63.70
16287;DHT22;8251;53.568;10.018;2023-04-25T08:56:21;12.20;63.10
16287;DHT22;8251;53.568;10.018;2023-04-25T08:58:49;12.50;63.00
16287;DHT22;8251;53.568;10.018;2023-04-25T09:01:18;12.70;62.60
16287;DHT22;8251;53.568;10.018;2023-04-25T09:03:45;12.80;60.70
16287;DHT22;8251;53.568;10.018;2023-04-25T09:06:13;12.70;61.60
16287;DHT22;8251;53.568;10.018;2023-04-25T09:08:41;12.60;65.30
16287;DHT22;8251;53.568;10.018;2023-04-25T09:11:08;12.50;65.00
16287;DHT22;8251;53.568;10.018;2023-04-25T09:13:35;12.70;64.10
16287;DHT22;8251;53.568;10.018;2023-04-25T09:16:02;12.70;63.90
16287;DHT22;8251;53.568;10.018;2023-04-25T09:18:34;12.50;61.20
16287;DHT22;8251;53.568;10.018;2023-04-25T09:21:06;12.40;60.70
16287;DHT22;8251;53.568;10.018;2023-04-25T09:23:39;12.40;62.60
16287;DHT22;8251;53.568;10.018;2023-04-25T09:26:07;12.30;61.50
16287;DHT22;8251;53.568;10.018;2023-04-25T09:28:34;12.10;61.30
16287;DHT22;8251;53.568;10.018;2023-04-25T09:31:03;12.10;60.90
16287;DHT22;8251;53.568;10.018;2023-04-25T09:33:32;12.30;62.90
16287;DHT22;8251;53.568;10.018;2023-04-25T09:36:04;12.60;61.00
16287;DHT22;8251;53.568;10.018;2023-04-25T09:38:32;12.90;60.10
16287;DHT22;8251;53.568;10.018;2023-04-25T09:40:59;13.20;60.70
16287;DHT22;8251;53.568;10.018;2023-04-25T09:43:27;13.20;59.90
16287;DHT22;8251;53.568;10.018;2023-04-25T09:45:55;13.10;62.00
16287;DHT22;8251;53.568;10.018;2023-04-25T09:48:29;12.80;64.80
16287;DHT22;8251;53.568;10.018;2023-04-25T09:51:07;12.60;67.20
16287;DHT22;8251;53.568;10.018;2023-04-25T09:53:36;12.50;69.10
16287;DHT22;8251;53.568;10.018;2023-04-25T09:56:04;12.40;68.40
16287;DHT22;8251;53.568;10.018;2023-04-25T09:58:32;12.40;68.30
16287;DHT22;8251;53.568;10.018;2023-04-25T10:01:01;12.60;69.20
16287;DHT22;8251;53.568;10.018;2023-04-25T10:03:30;12.70;66.80
16287;DHT22;8251;53.568;10.018;2023-04-25T10:05:59;12.80;65.10
16287;DHT22;8251;53.568;10.018;2023-04-25T10:08:31;12.90;65.60
16287;DHT22;8251;53.568;10.018;2023-04-25T10:11:00;13.00;66.30
16287;DHT22;8251;53.568;10.018;2023-04-25T10:13:29;13.20;65.90
16287;DHT22;8251;53.568;10.018;2023-04-25T10:15:57;13.40;65.60
16287;DHT22;8251;53.568;10.018;2023-04-25T10:18:25;13.70;63.10
16287;DHT22;8251;53.568;10.018;2023-04-25T10:20:54;14.10;62.30
16287;DHT22;8251;53.568;10.018;2023-04-25T10:23:22;14.50;58.40
16287;DHT22;8251;53.568;10.018;2023-04-25T10:25:51;14.70;59.00
16287;DHT22;8251;53.568;10.018;2023-04-25T10:28:20;14.60;55.40
16287;DHT22;8251;53.568;10.018;2023-04-25T10:31:00;14.20;55.40
16287;DHT22;8251;53.568;10.018;2023-04-25T10:33:32;14.00;54.70
16287;DHT22;8251;53.568;10.018;2023-04-25T10:36:09;14.30;56.30
16287;DHT22;8251;53.568;10.018;2023-04-25T10:38:36;14.90;54.90
16287;DHT22;8251;53.568;10.018;2023-04-25T10:41:06;15.40;54.90
16287;DHT22;8251;53.568;10.018;2023-04-25T10:43:36;15.60;53.10
16287;DHT22;8251;53.568;10.018;2023-04-25T10:46:13;15.50;53.60
16287;DHT22;8251;53.568;10.018;2023-04-25T10:48:45;15.50;53.80
16287;DHT22;8251;53.568;10.018;2023-04-25T10:51:20;15.20;54.20
16287;DHT22;8251;53.568;10.018;2023-04-25T10:53:57;15.30;54.50
16287;DHT22;8251;53.568;10.018;2023-04-25T10:56:27;15.60;54.80
16287;DHT22;8251;53.568;10.018;2023-04-25T10:59:08;15.90;52.40
16287;DHT22;8251;53.568;10.018;2023-04-25T11:01:38;15.80;53.30
16287;DHT22;8251;53.568;10.018;2023-04-25T11:04:05;15.80;54.10
16287;DHT22;8251;53.568;10.018;2023-04-25T11:06:46;15.50;54.90
16287;DHT22;8251;53.568;10.018;2023-04-25T11:09:15;15.10;55.80
16287;DHT22;8251;53.568;10.018;2023-04-25T11:11:58;14.80;55.80
16287;DHT22;8251;53.568;10.018;2023-04-25T11:14:36;14.70;56.10
16287;DHT22;8251;53.568;10.018;2023-04-25T11:17:07;14.80;57.10
16287;DHT22;8251;53.568;10.018;2023-04-25T11:19:34;14.80;57.00
16287;DHT22;8251;53.568;10.018;2023-04-25T11:22:02;14.90;56.90
16287;DHT22;8251;53.568;10.018;2023-04-25T11:24:34;14.90;56.60
16287;DHT22;8251;53.568;10.018;2023-04-25T11:27:04;14.80;56.00
16287;DHT22;8251;53.568;10.018;2023-04-25T11:29:35;14.70;56.00
16287;DHT22;8251;53.568;10.018;2023-04-25T11:32:02;14.50;55.30
16287;DHT22;8251;53.568;10.018;2023-04-25T11:34:30;14.50;56.30
16287;DHT22;8251;53.568;10.018;2023-04-25T11:36:58;14.40;54.70
16287;DHT22;8251;53.568;10.018;2023-04-25T11:39:26;14.30;55.80
16287;DHT22;8251;53.568;10.018;2023-04-25T11:41:53;14.10;58.70
16287;DHT22;8251;53.568;10.018;2023-04-25T11:44:22;13.90;59.70
16287;DHT22;8251;53.568;10.018;2023-04-25T11:46:50;13.60;60.50
16287;DHT22;8251;53.568;10.018;2023-04-25T11:49:17;13.40;61.60
16287;DHT22;8251;53.568;10.018;2023-04-25T11:51:46;13.20;60.40
16287;DHT22;8251;53.568;10.018;2023-04-25T11:54:13;13.40;62.10
16287;DHT22;8251;53.568;10.018;2023-04-25T11:56:41;13.80;60.70
16287;DHT22;8251;53.568;10.018;2023-04-25T11:59:08;14.20;59.60
16287;DHT22;8251;53.568;10.018;2023-04-25T12:01:38;14.40;58.40
16287;DHT22;8251;53.568;10.018;2023-04-25T12:04:15;14.40;58.50
16287;DHT22;8251;53.568;10.018;2023-04-25T12:06:44;14.80;58.10
16287;DHT22;8251;53.568;10.018;2023-04-25T12:09:13;15.10;56.90
16287;DHT22;8251;53.568;10.018;2023-04-25T12:11:41;15.50;57.50
16287;DHT22;8251;53.568;10.018;2023-04-25T12:14:09;15.80;57.70
16287;DHT22;8251;53.568;10.018;2023-04-25T12:16:47;15.90;53.70
16287;DHT22;8251;53.568;10.018;2023-04-25T12:19:15;15.90;54.00
16287;DHT22;8251;53.568;10.018;2023-04-25T12:21:43;16.00;52.20
16287;DHT22;8251;53.568;10.018;2023-04-25T12:24:11;16.10;48.70
16287;DHT22;8251;53.568;10.018;2023-04-25T12:26:58;16.00;47.00
16287;DHT22;8251;53.568;10.018;2023-04-25T12:29:27;16.00;48.00
16287;DHT22;8251;53.568;10.018;2023-04-25T12:31:56;15.90;47.70
16287;DHT22;8251;53.568;10.018;2023-04-25T12:34:24;15.90;47.80
16287;DHT22;8251;53.568;10.018;2023-04-25T12:36:52;16.00;48.50
16287;DHT22;8251;53.568;10.018;2023-04-25T12:39:20;16.20;46.20
16287;DHT22;8251;53.568;10.018;2023-04-25T12:41:48;16.40;46.40
16287;DHT22;8251;53.568;10.018;2023-04-25T12:44:19;16.30;46.60
16287;DHT22;8251;53.568;10.018;2023-04-25T12:46:47;16.40;46.00
16287;DHT22;8251;53.568;10.018;2023-04-25T12:49:18;16.20;46.90
16287;DHT22;8251;53.568;10.018;2023-04-25T12:51:45;16.10;45.90
16287;DHT22;8251;53.568;10.018;2023-04-25T12:54:15;15.70;46.00
16287;DHT22;8251;53.568;10.018;2023-04-25T12:56:42;15.60;48.10
16287;DHT22;8251;53.568;10.018;2023-04-25T12:59:09;15.50;50.10
16287;DHT22;8251;53.568;10.018;2023-04-25T13:01:37;15.40;52.00
16287;DHT22;8251;53.568;10.018;2023-04-25T13:04:04;15.40;50.80
16287;DHT22;8251;53.568;10.018;2023-04-25T13:06:33;15.60;49.50
16287;DHT22;8251;53.568;10.018;2023-04-25T13:09:00;15.70;50.10
16287;DHT22;8251;53.568;10.018;2023-04-25T13:11:27;15.60;50.10
16287;DHT22;8251;53.568;10.018;2023-04-25T13:13:54;15.70;49.40
16287;DHT22;8251;53.568;10.018;2023-04-25T13:16:21;15.70;48.80
16287;DHT22;8251;53.568;10.018;2023-04-25T13:18:48;15.40;48.90
16287;DHT22;8251;53.568;10.018;2023-04-25T13:21:15;15.20;50.90
16287;DHT22;8251;53.568;10.018;2023-04-25T13:23:43;14.90;52.30
16287;DHT22;8251;53.568;10.018;2023-04-25T13:26:12;14.50;53.60
16287;DHT22;8251;53.568;10.018;2023-04-25T13:28:39;14.30;56.40
16287;DHT22;8251;53.568;10.018;2023-04-25T13:31:07;13.70;58.90
16287;DHT22;8251;53.568;10.018;2023-04-25T13:33:33;13.50;59.40
16287;DHT22;8251;53.568;10.018;2023-04-25T13:36:01;13.50;59.60
16287;DHT22;8251;53.568;10.018;2023-04-25T13:38:32;13.50;59.60
16287;DHT22;8251;53.568;10.018;2023-04-25T13:41:16;13.40;59.40
16287;DHT22;8251;53.568;10.018;2023-04-25T13:43:46;13.40;61.70
16287;DHT22;8251;53.568;10.018;2023-04-25T13:46:14;13.60;60.30
16287;DHT22;8251;53.568;10.018;2023-04-25T13:48:42;13.70;60.90
16287;DHT22;8251;53.568;10.018;2023-04-25T13:51:13;13.80;61.60
16287;DHT22;8251;53.568;10.018;2023-04-25T13:53:44;14.00;59.30
16287;DHT22;8251;53.568;10.018;2023-04-25T13:56:13;13.80;57.80
16287;DHT22;8251;53.568;10.018;2023-04-25T13:58:40;13.60;59.40
16287;DHT22;8251;53.568;10.018;2023-04-25T14:01:07;13.20;60.60
16287;DHT22;8251;53.568;10.018;2023-04-25T14:03:34;12.80;62.40
16287;DHT22;8251;53.568;10.018;2023-04-25T14:06:02;12.50;63.70
16287;DHT22;8251;53.568;10.018;2023-04-25T14:08:30;12.40;64.20
16287;DHT22;8251;53.568;10.018;2023-04-25T14:10:57;12.30;64.30
16287;DHT22;8251;53.568;10.018;2023-04-25T14:13:25;12.30;63.80
16287;DHT22;8251;53.568;10.018;2023-04-25T14:15:53;12.30;64.00
16287;DHT22;8251;53.568;10.018;2023-04-25T14:18:20;12.10;63.30
16287;DHT22;8251;53.568;10.018;2023-04-25T14:20:47;12.20;63.30
16287;DHT22;8251;53.568;10.018;2023-04-25T14:23:14;12.40;64.90
16287;DHT22;8251;53.568;10.018;2023-04-25T14:25:41;12.60;63.70
16287;DHT22;8251;53.568;10.018;2023-04-25T14:28:09;12.80;64.90
16287;DHT22;8251;53.568;10.018;2023-04-25T14:30:38;12.90;64.70
16287;DHT22;8251;53.568;10.018;2023-04-25T14:33:05;13.00;63.30
16287;DHT22;8251;53.568;10.018;2023-04-25T14:35:33;13.10;62.80
16287;DHT22;8251;53.568;10.018;2023-04-25T14:38:00;13.00;60.60
16287;DHT22;8251;53.568;10.018;2023-04-25T14:40:29;13.00;59.60
16287;DHT22;8251;53.568;10.018;2023-04-25T14:42:59;13.10;58.60
16287;DHT22;8251;53.568;10.018;2023-04-25T14:45:28;13.00;56.30
16287;DHT22;8251;53.568;10.018;2023-04-25T14:47:57;13.00;56.90
16287;DHT22;8251;53.568;10.018;2023-04-25T14:50:24;13.00;55.90
16287;DHT22;8251;53.568;10.018;2023-04-25T14:52:51;13.00;56.00
16287;DHT22;8251;53.568;10.018;2023-04-25T14:55:18;13.10;54.30
16287;DHT22;8251;53.568;10.018;2023-04-25T14:57:45;13.10;53.40
16287;DHT22;8251;53.568;10.018;2023-04-25T15:00:13;13.00;52.20
16287;DHT22;8251;53.568;10.018;2023-04-25T15:02:42;13.00;54.10
16287;DHT22;8251;53.568;10.018;2023-04-25T15:05:11;13.10;55.70
16287;DHT22;8251;53.568;10.018;2023-04-25T15:07:48;13.20;54.20
16287;DHT22;8251;53.568;10.018;2023-04-25T15:10:24;13.00;53.90
16287;DHT22;8251;53.568;10.018;2023-04-25T15:13:01;12.90;56.30
16287;DHT22;8251;53.568;10.018;2023-04-25T15:15:28;12.70;57.20
16287;DHT22;8251;53.568;10.018;2023-04-25T15:17:57;12.80;58.70
16287;DHT22;8251;53.568;10.018;2023-04-25T15:20:26;12.80;58.20
16287;DHT22;8251;53.568;10.018;2023-04-25T15:22:53;12.90;58.40
16287;DHT22;8251;53.568;10.018;2023-04-25T15:25:23;13.00;58.40
16287;DHT22;8251;53.568;10.018;2023-04-25T15:27:56;13.10;58.70
16287;DHT22;8251;53.568;10.018;2023-04-25T15:30:23;13.20;58.00
16287;DHT22;8251;53.568;10.018;2023-04-25T15:32:50;13.40;56.80
16287;DHT22;8251;53.568;10.018;2023-04-25T15:35:17;13.60;58.20
16287;DHT22;8251;53.568;10.018;2023-04-25T15:37:45;13.70;57.80
16287;DHT22;8251;53.568;10.018;2023-04-25T15:40:14;13.80;57.40